Time;durP1;ratioP1;P1;durP2;ratioP2;P2;SDS_P1;SDS_P2;PMS_P1;PMS_P2;Temp;Humidity;BMP_temperature;BMP_pressure;BME280_temperature;BME280_humidity;BME280_pressure;Samples;Min_cycle;Max_cycle;Signal;HPM_P1;HPM_P2
2021/03/31 00:02:14;;;;;;;30.80;19.12;;;12.90;89.90;;;;;;1922467;73;21593;-65
2021/03/31 00:04:42;;;;;;;28.00;18.23;;;12.80;90.10;;;;;;1911277;74;21231;-67
2021/03/31 00:07:11;;;;;;;31.20;18.15;;;12.80;90.90;;;;;;1923464;73;21110;-67
2021/03/31 00:09:42;;;;;;;30.77;18.37;;;12.70;90.80;;;;;;1928829;73;21089;-68
2021/03/31 00:12:10;;;;;;;30.92;18.87;;;12.70;90.70;;;;;;1920479;73;21775;-67
2021/03/31 00:14:38;;;;;;;28.77;18.20;;;12.60;90.90;;;;;;1920855;73;21199;-67
2021/03/31 00:17:05;;;;;;;24.70;17.37;;;12.60;90.80;;;;;;1915910;73;21210;-66
2021/03/31 00:19:33;;;;;;;28.25;18.40;;;12.60;90.90;;;;;;1926479;73;21532;-66
2021/03/31 00:22:00;;;;;;;32.00;19.00;;;12.50;90.90;;;;;;1926157;73;21681;-66
2021/03/31 00:24:28;;;;;;;27.85;18.77;;;12.50;91.00;;;;;;1925056;73;21166;-66
2021/03/31 00:26:55;;;;;;;30.27;18.92;;;12.60;91.00;;;;;;1924202;73;21138;-65
2021/03/31 00:29:23;;;;;;;32.67;18.85;;;12.60;90.90;;;;;;1915997;73;21488;-66
2021/03/31 00:31:51;;;;;;;32.15;18.92;;;12.50;91.10;;;;;;1924110;73;21202;-66
2021/03/31 00:34:18;;;;;;;34.43;19.23;;;12.60;91.00;;;;;;1921877;74;21203;-66
2021/03/31 00:36:46;;;;;;;33.60;20.12;;;12.60;91.20;;;;;;1913372;73;21077;-66
2021/03/31 00:39:14;;;;;;;32.13;19.92;;;12.60;91.10;;;;;;1927290;73;21061;-66
2021/03/31 00:41:42;;;;;;;36.73;19.10;;;12.50;91.20;;;;;;1920241;73;21058;-66
2021/03/31 00:44:09;;;;;;;32.65;20.30;;;12.40;91.40;;;;;;1926236;73;21140;-66
2021/03/31 00:46:37;;;;;;;27.22;18.15;;;12.30;91.70;;;;;;1915812;73;21132;-66
2021/03/31 00:49:04;;;;;;;30.10;18.65;;;12.40;91.70;;;;;;1921430;73;21591;-66
2021/03/31 00:51:32;;;;;;;29.60;17.73;;;12.30;91.80;;;;;;1925906;73;21053;-66
2021/03/31 00:53:59;;;;;;;32.95;19.75;;;12.20;92.00;;;;;;1920973;73;21093;-66
2021/03/31 00:56:27;;;;;;;29.70;19.23;;;12.10;92.10;;;;;;1919287;73;21737;-66
2021/03/31 00:58:54;;;;;;;32.73;19.75;;;12.20;92.10;;;;;;1923408;73;21085;-66
2021/03/31 01:01:23;;;;;;;28.95;18.17;;;12.20;92.20;;;;;;1918321;73;21108;-66
2021/03/31 01:03:50;;;;;;;28.35;18.70;;;12.10;92.30;;;;;;1919023;74;21145;-65
2021/03/31 01:06:18;;;;;;;29.95;18.80;;;12.10;92.80;;;;;;1915613;74;21108;-66
2021/03/31 01:08:45;;;;;;;29.55;20.23;;;12.10;92.30;;;;;;1920367;73;21167;-65
2021/03/31 01:11:16;;;;;;;33.50;19.30;;;12.10;92.40;;;;;;1921074;73;21589;-65
2021/03/31 01:14:01;;;;;;;33.92;20.72;;;12.00;92.60;;;;;;1928167;73;21219;-65
2021/03/31 01:16:35;;;;;;;30.17;19.23;;;12.10;92.60;;;;;;1926611;73;21128;-66
2021/03/31 01:19:21;;;;;;;28.35;18.80;;;12.00;92.70;;;;;;1923519;73;21139;-66
2021/03/31 01:22:08;;;;;;;29.45;19.10;;;12.00;92.60;;;;;;1919346;73;21147;-66
2021/03/31 01:24:54;;;;;;;30.27;18.25;;;11.90;93.00;;;;;;1897850;73;21094;-66
2021/03/31 01:27:33;;;;;;;30.43;18.57;;;11.80;93.10;;;;;;1927580;73;21174;-65
2021/03/31 01:30:13;;;;;;;32.00;19.23;;;11.80;93.20;;;;;;1929937;73;21041;-66
2021/03/31 01:32:43;;;;;;;33.63;18.67;;;11.70;93.30;;;;;;1923838;73;21567;-65
2021/03/31 01:35:17;;;;;;;31.45;18.70;;;11.70;93.50;;;;;;1916665;73;21230;-65
2021/03/31 01:37:56;;;;;;;34.30;18.50;;;11.60;93.60;;;;;;1933831;73;21174;-65
2021/03/31 01:40:26;;;;;;;28.50;18.77;;;11.50;93.70;;;;;;1920755;73;21371;-65
2021/03/31 01:43:06;;;;;;;28.23;18.17;;;11.40;94.00;;;;;;1927370;73;22121;-65
2021/03/31 01:45:36;;;;;;;26.95;18.70;;;11.40;94.50;;;;;;1924425;73;21568;-65
2021/03/31 01:48:09;;;;;;;27.07;17.48;;;11.40;94.50;;;;;;1926777;73;21038;-65
2021/03/31 01:50:38;;;;;;;29.27;18.35;;;11.30;94.60;;;;;;1929064;73;21101;-66
2021/03/31 01:53:07;;;;;;;29.95;18.80;;;11.30;94.80;;;;;;1925659;73;21580;-65
2021/03/31 01:55:35;;;;;;;28.45;18.87;;;11.40;94.70;;;;;;1924255;73;21238;-65
2021/03/31 01:58:04;;;;;;;29.30;19.10;;;11.40;94.60;;;;;;1926964;73;21089;-66
2021/03/31 02:00:33;;;;;;;35.35;19.42;;;11.30;94.80;;;;;;1922007;73;21107;-65
2021/03/31 02:03:01;;;;;;;26.12;18.05;;;11.40;94.90;;;;;;1921384;73;21183;-65
2021/03/31 02:05:31;;;;;;;31.45;19.42;;;11.40;94.80;;;;;;1924307;73;21109;-65
2021/03/31 02:07:59;;;;;;;27.02;18.65;;;11.30;94.70;;;;;;1923270;73;21206;-65
2021/03/31 02:10:28;;;;;;;31.30;18.30;;;11.40;95.00;;;;;;1933150;73;21531;-65
2021/03/31 02:12:56;;;;;;;25.62;18.50;;;11.20;95.30;;;;;;1919475;73;20998;-65
2021/03/31 02:15:27;;;;;;;26.75;17.57;;;11.10;95.40;;;;;;1926998;73;21515;-65
2021/03/31 02:17:58;;;;;;;28.90;18.20;;;11.20;95.40;;;;;;1919151;73;21081;-65
2021/03/31 02:20:26;;;;;;;27.27;17.80;;;11.20;95.30;;;;;;1932111;73;21573;-65
2021/03/31 02:22:54;;;;;;;26.30;18.17;;;11.10;95.30;;;;;;1926035;73;21092;-65
2021/03/31 02:25:22;;;;;;;31.73;18.98;;;11.10;95.40;;;;;;1922708;73;22278;-67
2021/03/31 02:27:49;;;;;;;24.12;18.07;;;11.00;96.00;;;;;;1923067;73;21101;-67
2021/03/31 02:30:20;;;;;;;30.88;18.32;;;11.00;96.00;;;;;;1922383;73;21616;-67
2021/03/31 02:32:51;;;;;;;28.40;19.12;;;10.90;96.00;;;;;;1918971;73;21409;-67
2021/03/31 02:35:21;;;;;;;27.75;18.80;;;10.90;96.00;;;;;;1921303;73;21637;-66
2021/03/31 02:37:55;;;;;;;36.17;18.55;;;10.80;96.30;;;;;;1920115;73;21169;-67
2021/03/31 02:40:23;;;;;;;28.95;17.75;;;10.80;96.50;;;;;;1916307;73;21159;-67
2021/03/31 02:42:52;;;;;;;27.48;17.12;;;10.70;96.70;;;;;;1922746;73;21214;-67
2021/03/31 02:45:22;;;;;;;29.77;17.70;;;10.70;97.10;;;;;;1916168;73;21061;-67
2021/03/31 02:47:51;;;;;;;29.40;18.07;;;10.80;96.90;;;;;;1921195;73;21120;-67
2021/03/31 02:50:21;;;;;;;30.15;16.85;;;10.70;96.60;;;;;;1921892;73;22145;-67
2021/03/31 02:52:51;;;;;;;28.00;18.32;;;10.70;96.90;;;;;;1916605;73;21414;-64
2021/03/31 02:55:20;;;;;;;26.12;17.50;;;10.70;96.90;;;;;;1913438;73;21058;-67
2021/03/31 02:57:48;;;;;;;28.20;16.60;;;10.70;97.10;;;;;;1924400;73;21605;-65
2021/03/31 03:00:17;;;;;;;26.27;17.70;;;10.70;97.10;;;;;;1926101;73;21080;-67
2021/03/31 03:02:46;;;;;;;29.50;18.37;;;10.70;97.20;;;;;;1931803;73;21027;-67
2021/03/31 03:05:17;;;;;;;30.92;18.30;;;10.60;97.20;;;;;;1925305;73;21114;-67
2021/03/31 03:07:44;;;;;;;32.40;19.10;;;10.70;97.20;;;;;;1927463;73;21124;-67
2021/03/31 03:10:12;;;;;;;27.98;18.10;;;10.70;97.20;;;;;;1926331;73;21096;-67
2021/03/31 03:12:48;;;;;;;27.05;17.95;;;10.70;97.20;;;;;;1921594;73;21100;-65
2021/03/31 03:15:18;;;;;;;32.00;18.00;;;10.60;97.40;;;;;;1930617;73;21130;-66
2021/03/31 03:17:46;;;;;;;24.27;17.92;;;10.60;97.40;;;;;;1927311;73;21049;-66
2021/03/31 03:20:16;;;;;;;27.73;17.55;;;10.60;97.70;;;;;;1924322;73;21574;-66
2021/03/31 03:22:46;;;;;;;22.55;16.02;;;10.60;97.60;;;;;;1931266;73;21104;-66
2021/03/31 03:25:16;;;;;;;29.00;17.57;;;10.70;97.30;;;;;;1915207;73;21117;-66
2021/03/31 03:27:45;;;;;;;27.07;17.55;;;10.70;97.10;;;;;;1921661;73;21097;-66
2021/03/31 03:30:16;;;;;;;26.68;16.95;;;10.60;97.30;;;;;;1922371;73;21182;-66
2021/03/31 03:32:46;;;;;;;29.27;17.40;;;10.50;97.60;;;;;;1926700;73;21131;-66
2021/03/31 03:35:15;;;;;;;26.12;17.57;;;10.50;97.60;;;;;;1927041;73;21154;-66
2021/03/31 03:37:48;;;;;;;28.57;17.17;;;10.50;97.50;;;;;;1929689;73;21155;-66
2021/03/31 03:40:17;;;;;;;29.55;18.05;;;10.40;97.70;;;;;;1929142;73;21583;-66
2021/03/31 03:42:44;;;;;;;31.93;17.60;;;10.40;97.80;;;;;;1926881;73;21107;-66
2021/03/31 03:45:13;;;;;;;28.20;18.32;;;10.40;97.90;;;;;;1920202;73;21039;-65
2021/03/31 03:47:42;;;;;;;29.12;17.98;;;10.40;98.00;;;;;;1924580;73;21880;-66
2021/03/31 03:50:14;;;;;;;26.73;17.95;;;10.50;97.90;;;;;;1923029;73;21061;-66
2021/03/31 03:52:46;;;;;;;28.15;17.52;;;10.50;98.00;;;;;;1914876;73;21081;-66
2021/03/31 03:55:23;;;;;;;27.90;17.23;;;10.50;97.80;;;;;;1909720;74;21190;-66
2021/03/31 03:57:52;;;;;;;26.60;16.15;;;10.40;97.90;;;;;;1893697;73;21117;-70
2021/03/31 04:00:22;;;;;;;24.82;16.27;;;10.40;98.00;;;;;;1856991;75;21089;-69
2021/03/31 04:02:53;;;;;;;26.42;17.17;;;10.40;98.00;;;;;;1855340;75;21108;-69
2021/03/31 04:05:21;;;;;;;27.63;17.47;;;10.30;98.20;;;;;;1859715;75;21033;-69
2021/03/31 04:07:49;;;;;;;30.12;17.80;;;10.20;98.60;;;;;;1865943;74;21793;-69
2021/03/31 04:10:18;;;;;;;31.60;17.20;;;10.10;98.50;;;;;;1871945;74;21198;-69
2021/03/31 04:12:46;;;;;;;25.75;17.57;;;10.10;98.80;;;;;;1880218;74;21069;-69
2021/03/31 04:15:15;;;;;;;27.50;17.40;;;10.00;98.90;;;;;;1880324;74;21139;-69
2021/03/31 04:17:45;;;;;;;28.45;16.95;;;10.00;99.00;;;;;;1880042;74;21133;-70
2021/03/31 04:20:20;;;;;;;27.17;17.23;;;10.00;99.10;;;;;;1875530;74;21141;-70
2021/03/31 04:22:48;;;;;;;28.62;17.48;;;9.90;99.30;;;;;;1880233;74;21236;-69
2021/03/31 04:25:18;;;;;;;26.55;17.23;;;9.90;99.70;;;;;;1874236;74;21588;-70
2021/03/31 04:27:48;;;;;;;25.57;17.67;;;9.80;99.90;;;;;;1886065;74;21261;-71
2021/03/31 04:30:16;;;;;;;27.22;17.65;;;9.70;99.90;;;;;;1878828;74;21211;-69
2021/03/31 04:32:46;;;;;;;31.82;17.65;;;9.80;99.80;;;;;;1879307;74;21566;-69
2021/03/31 04:35:17;;;;;;;26.33;17.75;;;9.80;99.70;;;;;;1878768;74;21698;-69
2021/03/31 04:37:45;;;;;;;27.50;17.92;;;9.70;99.80;;;;;;1879912;74;21523;-69
2021/03/31 04:40:15;;;;;;;25.23;17.77;;;9.70;99.90;;;;;;1873912;74;21222;-69
2021/03/31 04:42:42;;;;;;;24.25;17.45;;;9.80;99.90;;;;;;1877269;74;21331;-69
2021/03/31 04:45:12;;;;;;;28.77;17.23;;;9.70;99.90;;;;;;1879784;74;21084;-69
2021/03/31 04:47:40;;;;;;;24.95;17.12;;;9.70;99.90;;;;;;1881974;74;21132;-70
2021/03/31 04:50:10;;;;;;;30.17;17.30;;;9.80;99.90;;;;;;1882239;74;21179;-69
2021/03/31 04:52:38;;;;;;;26.42;16.85;;;9.80;99.90;;;;;;1880623;74;21543;-69
2021/03/31 04:55:06;;;;;;;28.98;17.50;;;9.80;99.90;;;;;;1868874;74;21662;-69
2021/03/31 04:57:33;;;;;;;23.90;16.73;;;9.70;99.90;;;;;;1872467;74;21207;-69
2021/03/31 05:00:01;;;;;;;29.70;17.05;;;9.60;99.90;;;;;;1876983;74;21062;-69
2021/03/31 05:02:28;;;;;;;29.48;18.92;;;9.60;99.90;;;;;;1885754;74;21584;-70
2021/03/31 05:04:56;;;;;;;31.27;18.80;;;9.70;99.90;;;;;;1880926;74;21164;-69
2021/03/31 05:07:23;;;;;;;29.32;18.95;;;9.70;99.90;;;;;;1878160;74;21427;-68
2021/03/31 05:09:51;;;;;;;31.05;18.85;;;9.70;99.90;;;;;;1874425;74;21535;-70
2021/03/31 05:12:18;;;;;;;27.52;18.37;;;9.70;99.90;;;;;;1886178;74;21088;-69
2021/03/31 05:14:46;;;;;;;26.77;17.07;;;9.80;99.90;;;;;;1880830;74;21109;-69
2021/03/31 05:17:13;;;;;;;32.13;17.20;;;9.70;99.90;;;;;;1887070;74;21188;-69
2021/03/31 05:19:41;;;;;;;26.17;16.95;;;9.80;99.90;;;;;;1880967;74;21153;-69
2021/03/31 05:22:08;;;;;;;29.57;16.95;;;9.70;99.90;;;;;;1884627;74;21413;-70
2021/03/31 05:24:36;;;;;;;26.10;15.80;;;9.60;99.90;;;;;;1882196;75;21188;-70
2021/03/31 05:27:04;;;;;;;24.18;16.48;;;9.70;99.90;;;;;;1876143;74;21159;-70
2021/03/31 05:29:31;;;;;;;25.85;15.90;;;9.70;99.90;;;;;;1880631;74;21153;-71
2021/03/31 05:31:59;;;;;;;21.97;15.93;;;9.80;99.90;;;;;;1880447;74;21179;-70
2021/03/31 05:34:27;;;;;;;23.15;15.15;;;9.80;99.90;;;;;;1884858;74;21101;-70
2021/03/31 05:36:55;;;;;;;22.07;15.43;;;9.90;99.90;;;;;;1880252;75;21093;-70
2021/03/31 05:39:22;;;;;;;30.43;16.07;;;9.90;99.90;;;;;;1895908;74;21066;-71
2021/03/31 05:41:50;;;;;;;29.35;16.07;;;9.90;99.90;;;;;;1882377;74;21155;-68
2021/03/31 05:44:17;;;;;;;24.65;17.17;;;9.90;99.90;;;;;;1887464;74;21125;-69
2021/03/31 05:46:45;;;;;;;22.22;15.13;;;9.90;99.90;;;;;;1895119;74;21088;-69
2021/03/31 05:49:13;;;;;;;25.40;16.50;;;9.90;99.90;;;;;;1886140;74;21274;-68
2021/03/31 05:51:40;;;;;;;22.13;15.43;;;9.80;99.90;;;;;;1880286;74;21093;-70
2021/03/31 05:54:08;;;;;;;28.45;17.32;;;9.90;99.90;;;;;;1881455;74;21183;-70
2021/03/31 05:56:37;;;;;;;26.15;16.70;;;9.90;99.90;;;;;;1877566;74;21180;-70
2021/03/31 05:59:05;;;;;;;28.32;16.62;;;10.00;99.90;;;;;;1879865;74;21141;-68
2021/03/31 06:01:33;;;;;;;23.05;16.15;;;9.90;99.90;;;;;;1885857;74;21166;-68
2021/03/31 06:04:02;;;;;;;24.65;16.20;;;10.00;99.90;;;;;;1884356;74;21023;-67
2021/03/31 06:06:31;;;;;;;23.98;16.60;;;10.00;99.90;;;;;;1875713;75;21602;-67
2021/03/31 06:08:59;;;;;;;24.37;16.82;;;10.00;99.90;;;;;;1880346;74;21148;-67
2021/03/31 06:11:26;;;;;;;27.62;17.73;;;10.10;99.90;;;;;;1878051;75;21081;-67
2021/03/31 06:13:59;;;;;;;25.72;18.77;;;10.20;99.90;;;;;;1874357;75;21086;-67
2021/03/31 06:16:37;;;;;;;29.98;18.23;;;10.40;99.90;;;;;;1879107;74;21117;-67
2021/03/31 06:19:18;;;;;;;26.20;18.10;;;10.50;99.90;;;;;;1880619;74;21531;-70
2021/03/31 06:22:16;;;;;;;33.80;18.95;;;10.70;99.90;;;;;;1883533;74;21167;-69
2021/03/31 06:24:48;;;;;;;30.02;18.45;;;10.80;99.50;;;;;;1882146;75;21142;-70
2021/03/31 06:27:19;;;;;;;26.75;18.80;;;11.00;99.10;;;;;;1886509;74;21155;-69
2021/03/31 06:30:02;;;;;;;27.48;18.32;;;11.10;99.20;;;;;;1881123;74;21083;-68
2021/03/31 06:32:19;;;;;;;28.77;19.05;;;11.30;98.40;;;;;;1894271;74;21147;-69
2021/03/31 06:34:58;;;;;;;25.43;17.62;;;11.40;97.30;;;;;;1887122;74;21130;-69
2021/03/31 06:37:29;;;;;;;28.30;18.50;;;11.60;96.20;;;;;;1884968;74;21931;-69
2021/03/31 06:39:57;;;;;;;28.62;18.23;;;11.80;95.80;;;;;;1880779;74;21095;-69
2021/03/31 06:42:44;;;;;;;28.92;19.30;;;11.90;94.70;;;;;;1894224;74;21478;-69
2021/03/31 06:45:15;;;;;;;30.65;18.23;;;12.10;94.70;;;;;;1890788;74;21120;-69
2021/03/31 06:47:47;;;;;;;28.98;18.85;;;12.30;94.30;;;;;;1886904;74;21192;-69
2021/03/31 06:50:15;;;;;;;28.67;18.20;;;12.40;93.00;;;;;;1890153;74;21108;-70
2021/03/31 06:53:02;;;;;;;30.43;19.00;;;12.60;92.70;;;;;;1882654;74;21129;-68
2021/03/31 06:55:31;;;;;;;26.95;18.70;;;12.70;93.00;;;;;;1886530;74;21070;-68
2021/03/31 06:58:01;;;;;;;35.17;20.37;;;12.80;92.80;;;;;;1885281;74;21164;-68
2021/03/31 07:00:37;;;;;;;26.85;18.48;;;12.90;91.90;;;;;;1877780;74;21137;-69
2021/03/31 07:03:07;;;;;;;30.05;18.57;;;13.00;91.50;;;;;;1881016;74;21211;-68
2021/03/31 07:05:40;;;;;;;22.70;16.77;;;13.10;90.90;;;;;;1884830;74;22561;-68
2021/03/31 07:08:12;;;;;;;25.92;17.80;;;13.10;90.10;;;;;;1890420;74;21141;-68
2021/03/31 07:10:46;;;;;;;;;;;13.20;90.30;;;;;;1893347;74;21800;-68
2021/03/31 07:13:33;;;;;;;26.27;17.75;;;13.30;88.80;;;;;;1887047;74;20230;-69
2021/03/31 07:16:03;;;;;;;28.57;18.07;;;13.40;88.80;;;;;;1888287;74;21226;-69
2021/03/31 07:18:32;;;;;;;32.23;18.20;;;13.50;88.10;;;;;;1893645;74;21184;-69
2021/03/31 07:21:02;;;;;;;26.35;16.82;;;13.60;87.80;;;;;;1892841;74;21015;-68
2021/03/31 07:23:29;;;;;;;33.30;17.80;;;13.70;88.30;;;;;;1891048;74;21120;-68
2021/03/31 07:25:58;;;;;;;32.80;17.80;;;13.80;89.00;;;;;;1884207;74;21073;-68
2021/03/31 07:28:29;;;;;;;30.95;18.82;;;13.90;88.10;;;;;;1892976;74;21540;-69
2021/03/31 07:30:58;;;;;;;26.12;17.23;;;14.00;86.70;;;;;;1880464;74;21519;-68
2021/03/31 07:33:31;;;;;;;27.00;17.85;;;14.10;88.20;;;;;;1881858;74;21643;-69
2021/03/31 07:36:01;;;;;;;26.35;17.62;;;14.20;85.90;;;;;;1889158;74;21159;-69
2021/03/31 07:38:30;;;;;;;28.65;17.48;;;14.30;84.80;;;;;;1881635;74;21199;-68
2021/03/31 07:40:59;;;;;;;26.50;16.60;;;14.40;83.00;;;;;;1885923;74;21164;-68
2021/03/31 07:43:34;;;;;;;28.65;17.50;;;14.50;82.80;;;;;;1880680;74;21264;-69
2021/03/31 07:46:08;;;;;;;26.12;16.60;;;14.40;80.00;;;;;;1880014;74;21496;-69
2021/03/31 07:48:37;;;;;;;24.18;16.10;;;14.50;80.70;;;;;;1887713;74;21113;-68
2021/03/31 07:51:25;;;;;;;27.55;16.65;;;14.60;81.90;;;;;;1885554;74;21139;-68
2021/03/31 07:53:54;;;;;;;26.35;16.62;;;14.70;79.20;;;;;;1879650;74;21177;-68
2021/03/31 07:56:25;;;;;;;27.87;16.32;;;14.60;78.70;;;;;;1881733;74;21178;-69
2021/03/31 07:59:10;;;;;;;33.60;17.25;;;14.70;79.60;;;;;;1887627;74;21157;-69
2021/03/31 08:01:40;;;;;;;26.80;17.00;;;14.80;77.80;;;;;;1869583;74;21582;-68
2021/03/31 08:04:10;;;;;;;28.20;16.50;;;14.80;76.70;;;;;;1869710;75;21782;-68
2021/03/31 08:06:39;;;;;;;28.50;17.15;;;14.90;77.60;;;;;;1873712;75;21616;-69
2021/03/31 08:09:10;;;;;;;37.35;18.23;;;15.10;76.90;;;;;;1881635;74;21109;-68
2021/03/31 08:11:45;;;;;;;29.20;16.73;;;15.20;76.20;;;;;;1873161;75;21078;-69
2021/03/31 08:14:10;;;;;;;;;;;15.40;79.20;;;;;;1890273;74;21691;-69
2021/03/31 08:16:46;;;;;;;32.50;17.62;;;15.50;77.50;;;;;;1872008;75;20449;-69
2021/03/31 08:19:19;;;;;;;31.40;18.57;;;15.60;76.10;;;;;;1880004;75;21171;-69
2021/03/31 08:21:49;;;;;;;27.70;17.48;;;15.60;77.40;;;;;;1884790;75;21129;-69
2021/03/31 08:24:18;;;;;;;31.52;17.82;;;15.80;75.90;;;;;;1885666;75;21115;-69
2021/03/31 08:26:59;;;;;;;31.87;17.52;;;15.80;76.00;;;;;;1872510;74;21046;-69
2021/03/31 08:29:33;;;;;;;29.70;17.07;;;15.90;76.80;;;;;;1875945;75;21116;-69
2021/03/31 08:32:03;;;;;;;28.60;16.65;;;16.10;75.90;;;;;;1879093;75;21107;-69
2021/03/31 08:34:32;;;;;;;26.97;16.35;;;16.30;75.30;;;;;;1880309;74;21796;-68
2021/03/31 08:37:02;;;;;;;34.78;16.25;;;16.40;74.30;;;;;;1874488;75;21167;-68
2021/03/31 08:39:30;;;;;;;33.33;16.77;;;16.50;74.40;;;;;;1883400;74;21108;-69
2021/03/31 08:41:58;;;;;;;29.63;16.85;;;16.60;74.30;;;;;;1881214;74;21554;-69
2021/03/31 08:44:36;;;;;;;27.52;15.53;;;16.70;76.60;;;;;;1879787;75;21148;-69
2021/03/31 08:47:21;;;;;;;24.75;14.47;;;16.80;72.50;;;;;;1872888;75;21648;-69
2021/03/31 08:49:52;;;;;;;28.12;14.78;;;16.80;72.60;;;;;;1873593;75;21045;-69
2021/03/31 08:52:25;;;;;;;24.00;13.83;;;16.80;71.60;;;;;;1880574;74;21053;-68
2021/03/31 08:54:55;;;;;;;21.60;13.18;;;16.90;71.30;;;;;;1888488;74;21479;-68
2021/03/31 08:57:25;;;;;;;35.98;13.85;;;17.00;70.60;;;;;;1883260;74;21132;-73
2021/03/31 08:59:57;;;;;;;29.00;14.15;;;17.00;72.10;;;;;;1887434;74;21536;-69
2021/03/31 09:02:27;;;;;;;26.02;14.13;;;17.10;73.30;;;;;;1880808;74;21543;-68
2021/03/31 09:04:57;;;;;;;27.02;15.18;;;17.20;76.10;;;;;;1880991;74;21152;-67
2021/03/31 09:07:25;;;;;;;26.15;14.65;;;17.40;72.10;;;;;;1883167;74;21696;-67
2021/03/31 09:09:53;;;;;;;25.35;14.83;;;17.50;72.30;;;;;;1885921;74;21141;-68
2021/03/31 09:12:23;;;;;;;25.15;14.13;;;17.50;71.90;;;;;;1881340;74;21113;-68
2021/03/31 09:14:52;;;;;;;22.75;14.23;;;17.60;70.80;;;;;;1872622;74;21088;-69
2021/03/31 09:17:25;;;;;;;24.47;14.20;;;17.70;75.20;;;;;;1884096;74;21722;-68
2021/03/31 09:19:56;;;;;;;31.30;14.43;;;17.90;73.40;;;;;;1876736;74;21206;-69
2021/03/31 09:22:28;;;;;;;25.75;14.60;;;18.00;70.90;;;;;;1878933;74;21128;-69
2021/03/31 09:25:02;;;;;;;22.87;13.95;;;18.10;73.10;;;;;;1877663;74;21208;-69
2021/03/31 09:27:32;;;;;;;27.85;14.95;;;18.10;72.60;;;;;;1874075;74;21494;-69
2021/03/31 09:30:05;;;;;;;23.62;14.78;;;18.10;69.90;;;;;;1870355;74;21160;-70
2021/03/31 09:32:34;;;;;;;21.48;15.10;;;18.20;70.90;;;;;;1877933;74;22186;-69
2021/03/31 09:35:12;;;;;;;24.00;13.48;;;18.30;70.90;;;;;;1881006;74;21218;-69
2021/03/31 09:37:41;;;;;;;28.77;14.33;;;18.40;70.50;;;;;;1884279;74;21158;-70
2021/03/31 09:40:09;;;;;;;27.62;13.80;;;18.50;72.00;;;;;;1879043;74;21144;-70
2021/03/31 09:42:40;;;;;;;28.35;14.65;;;18.70;73.80;;;;;;1882865;75;21214;-69
2021/03/31 09:45:10;;;;;;;25.35;15.20;;;18.80;68.70;;;;;;1881380;74;21866;-69
2021/03/31 09:47:38;;;;;;;31.17;15.40;;;18.90;69.80;;;;;;1878892;74;21161;-69
2021/03/31 09:50:08;;;;;;;27.02;15.90;;;19.00;69.70;;;;;;1877070;74;21081;-69
2021/03/31 09:52:37;;;;;;;30.25;16.42;;;19.10;68.00;;;;;;1873586;75;21913;-69
2021/03/31 09:55:08;;;;;;;27.77;15.08;;;19.20;68.50;;;;;;1878578;74;21038;-70
2021/03/31 09:57:40;;;;;;;26.27;15.23;;;19.30;71.00;;;;;;1878380;74;21144;-69
2021/03/31 10:00:10;;;;;;;25.62;15.63;;;19.40;72.90;;;;;;1878556;75;21181;-68
2021/03/31 10:02:40;;;;;;;27.58;15.43;;;19.50;69.00;;;;;;1876335;74;21203;-68
2021/03/31 10:05:11;;;;;;;24.75;15.45;;;19.60;70.40;;;;;;1880260;74;21186;-68
2021/03/31 10:07:39;;;;;;;31.10;16.57;;;19.70;69.30;;;;;;1879123;75;21410;-68
2021/03/31 10:10:08;;;;;;;24.87;15.65;;;19.80;71.80;;;;;;1876408;74;21577;-68
2021/03/31 10:12:36;;;;;;;29.25;16.00;;;19.90;70.20;;;;;;1875927;75;21069;-69
2021/03/31 10:15:06;;;;;;;27.87;17.10;;;20.00;68.90;;;;;;1885291;74;21602;-71
2021/03/31 10:17:34;;;;;;;26.42;16.35;;;20.20;66.30;;;;;;1869657;74;21638;-71
2021/03/31 10:20:17;;;;;;;25.45;16.37;;;20.30;65.10;;;;;;1881126;74;21124;-71
2021/03/31 10:22:48;;;;;;;25.75;15.60;;;20.40;67.00;;;;;;1873815;75;21153;-71
2021/03/31 10:25:26;;;;;;;24.07;15.55;;;20.50;67.70;;;;;;1879979;74;21160;-71
2021/03/31 10:27:55;;;;;;;25.43;16.40;;;20.60;69.60;;;;;;1881779;74;21243;-71
2021/03/31 10:30:34;;;;;;;30.75;16.20;;;20.70;68.80;;;;;;1871941;75;21629;-71
2021/03/31 10:33:02;;;;;;;28.07;16.20;;;20.80;68.10;;;;;;1878256;74;21067;-71
2021/03/31 10:35:51;;;;;;;28.07;16.87;;;20.80;70.00;;;;;;1872060;74;21638;-68
2021/03/31 10:38:31;;;;;;;24.45;16.15;;;21.00;67.60;;;;;;1885016;74;21110;-68
2021/03/31 10:49:48;;;;;;;27.05;17.27;;;21.40;67.50;;;;;;1885909;74;21187;-68
2021/03/31 10:52:18;;;;;;;29.48;17.92;;;21.60;64.10;;;;;;1891227;74;21599;-69
2021/03/31 10:54:42;;;;;;;;;;;21.80;63.50;;;;;;1882182;74;21085;-69
2021/03/31 10:57:13;;;;;;;22.25;15.68;;;21.90;61.70;;;;;;1886538;74;20878;-69
2021/03/31 10:59:41;;;;;;;24.75;16.48;;;22.00;64.50;;;;;;1879034;74;21095;-70
2021/03/31 11:02:09;;;;;;;26.23;16.02;;;22.20;62.90;;;;;;1886963;74;21120;-70
2021/03/31 11:04:37;;;;;;;30.02;17.17;;;22.40;62.90;;;;;;1886460;74;21159;-70
2021/03/31 11:07:05;;;;;;;24.15;16.02;;;22.50;59.60;;;;;;1879929;74;21179;-70
2021/03/31 11:09:33;;;;;;;27.82;16.90;;;22.60;61.10;;;;;;1890174;74;21098;-69
2021/03/31 11:12:00;;;;;;;29.70;17.12;;;22.60;58.40;;;;;;1893227;74;21140;-69
2021/03/31 11:14:29;;;;;;;29.20;17.25;;;22.80;57.70;;;;;;1889697;74;21551;-70
2021/03/31 11:17:18;;;;;;;22.22;15.75;;;22.90;57.30;;;;;;1886923;74;21154;-70
2021/03/31 11:27:52;;;;;;;25.20;16.70;;;23.20;56.30;;;;;;1888714;74;21129;-69
2021/03/31 11:30:20;;;;;;;28.98;16.05;;;23.40;57.50;;;;;;1888891;74;21173;-70
2021/03/31 11:32:48;;;;;;;26.40;15.90;;;23.50;57.30;;;;;;1883629;74;21073;-69
2021/03/31 11:35:16;;;;;;;23.15;16.32;;;23.80;57.60;;;;;;1886658;74;21101;-70
2021/03/31 11:37:43;;;;;;;23.02;15.85;;;23.90;58.00;;;;;;1876029;74;21109;-69
2021/03/31 11:40:11;;;;;;;22.30;15.55;;;24.00;60.30;;;;;;1887235;74;21079;-69
2021/03/31 11:42:38;;;;;;;23.70;16.37;;;24.10;58.20;;;;;;1884703;74;21096;-69
2021/03/31 11:45:06;;;;;;;28.65;16.50;;;24.10;57.60;;;;;;1889170;74;21136;-69
2021/03/31 11:47:34;;;;;;;25.80;16.07;;;24.10;58.00;;;;;;1888275;74;21322;-69
2021/03/31 11:50:01;;;;;;;23.30;15.00;;;24.30;58.10;;;;;;1890821;74;21175;-70
2021/03/31 11:52:29;;;;;;;26.60;15.53;;;24.40;56.40;;;;;;1878050;74;21223;-70
2021/03/31 11:54:56;;;;;;;26.62;14.87;;;24.40;56.10;;;;;;1882928;74;22203;-69
2021/03/31 11:57:24;;;;;;;23.73;15.88;;;24.50;57.50;;;;;;1874033;74;21152;-70
2021/03/31 11:59:51;;;;;;;23.55;15.50;;;24.60;57.50;;;;;;1885311;74;21167;-69
2021/03/31 12:02:19;;;;;;;23.42;14.68;;;24.80;56.70;;;;;;1891700;74;21110;-70
2021/03/31 12:04:46;;;;;;;26.65;15.53;;;25.10;57.10;;;;;;1884953;74;21550;-70
2021/03/31 12:07:15;;;;;;;23.42;14.98;;;25.40;55.90;;;;;;1884794;74;21122;-70
2021/03/31 12:09:42;;;;;;;24.47;14.73;;;25.70;55.60;;;;;;1887907;74;21610;-70
2021/03/31 12:12:13;;;;;;;24.72;15.13;;;26.00;55.40;;;;;;1879764;74;21084;-70
2021/03/31 12:14:41;;;;;;;23.73;15.32;;;26.40;51.90;;;;;;1885897;74;21089;-71
2021/03/31 12:17:09;;;;;;;23.73;15.88;;;26.60;50.80;;;;;;1875122;74;21105;-70
2021/03/31 12:19:37;;;;;;;24.85;15.65;;;26.90;49.70;;;;;;1876921;74;21191;-70
2021/03/31 12:22:05;;;;;;;18.90;14.28;;;27.20;49.30;;;;;;1884119;74;21162;-69
2021/03/31 12:24:32;;;;;;;22.15;14.55;;;27.30;50.00;;;;;;1876919;74;21101;-69
2021/03/31 12:27:05;;;;;;;24.00;14.65;;;27.50;49.80;;;;;;1880863;74;21120;-69
2021/03/31 12:29:33;;;;;;;23.27;14.33;;;27.70;48.90;;;;;;1887014;74;22292;-69
2021/03/31 12:32:00;;;;;;;22.42;14.65;;;27.80;47.10;;;;;;1883824;74;21143;-69
2021/03/31 12:34:29;;;;;;;22.35;13.25;;;28.00;48.10;;;;;;1891854;74;21621;-69
2021/03/31 12:36:57;;;;;;;21.20;14.03;;;28.30;47.70;;;;;;1885457;74;21575;-69
2021/03/31 12:39:24;;;;;;;24.02;14.33;;;28.50;48.20;;;;;;1892619;74;21039;-69
2021/03/31 12:41:52;;;;;;;20.57;13.62;;;28.70;46.10;;;;;;1873759;74;21487;-69
2021/03/31 12:44:19;;;;;;;20.32;12.28;;;28.90;45.90;;;;;;1877185;74;21239;-69
2021/03/31 12:46:47;;;;;;;17.25;11.93;;;29.30;46.40;;;;;;1888198;74;21003;-69
2021/03/31 12:49:14;;;;;;;24.77;13.60;;;29.60;43.40;;;;;;1870952;74;21098;-68
2021/03/31 12:51:45;;;;;;;15.30;12.00;;;29.80;44.10;;;;;;1885362;74;21117;-69
2021/03/31 12:54:20;;;;;;;21.30;12.28;;;30.00;44.50;;;;;;1880982;74;21226;-69
2021/03/31 12:56:43;;;;;;;22.20;12.88;;;30.20;41.20;;;;;;1886222;74;21125;-70
2021/03/31 12:59:11;;;;;;;18.45;12.43;;;30.30;41.10;;;;;;1891930;74;21156;-69
2021/03/31 13:01:38;;;;;;;17.35;11.50;;;30.60;41.20;;;;;;1882990;74;21116;-69